Terminal Aerodrome Forecast
Issued by NWS

Home | Current Version | Previous Version | Text Only | Print | Product List | Glossary On
Versions: 1 2 3 4 5 6 7 8 9 10 11 12 13 14 15
000
FTUS46 KMTR 302339
TAFSJC
TAF
KSJC 302339Z 0100/0124 31010KT P6SM FEW130 SCT200
     FM010500 30005KT P6SM FEW200
     FM011000 VRB03KT P6SM FEW010 FEW200
     FM012100 31009KT P6SM SCT200=

USA.gov is the U.S. government's official web portal to all federal, state and local government web resources and services.